Time;durP1;ratioP1;P1;durP2;ratioP2;P2;SDS_P1;SDS_P2;PMS_P1;PMS_P2;Temp;Humidity;BMP_temperature;BMP_pressure;BME280_temperature;BME280_humidity;BME280_pressure;Samples;Min_cycle;Max_cycle;Signal;HPM_P1;HPM_P2
2021/04/07 00:00:43;;;;;;;5.50;3.72;;;;;;;3.73;65.64;99858.00;5053895;28;20116;-63
2021/04/07 00:03:23;;;;;;;4.85;3.08;;;;;;;3.74;65.71;99858.84;5069272;28;20057;-64
2021/04/07 00:05:59;;;;;;;9.15;3.60;;;;;;;3.72;65.73;99871.63;5053998;28;20500;-63
2021/04/07 00:08:38;;;;;;;3.50;3.15;;;;;;;3.71;66.17;99861.28;5052709;28;20043;-63
2021/04/07 00:11:18;;;;;;;5.97;3.70;;;;;;;3.71;65.96;99869.84;5053696;28;20049;-63
2021/04/07 00:13:52;;;;;;;5.10;3.35;;;;;;;3.71;65.57;99864.72;5054102;28;20029;-63
2021/04/07 00:16:32;;;;;;;12.02;4.63;;;;;;;3.70;65.82;99880.94;5068902;28;20466;-63
2021/04/07 00:19:10;;;;;;;6.88;3.88;;;;;;;3.69;65.71;99878.28;5053525;28;20492;-63
2021/04/07 00:21:41;;;;;;;7.57;4.80;;;;;;;3.69;66.11;99884.28;5053268;28;20488;-63
2021/04/07 00:24:15;;;;;;;8.00;4.28;;;;;;;3.71;66.23;99886.91;5068994;28;20044;-63
2021/04/07 00:26:55;;;;;;;9.48;4.07;;;;;;;3.69;66.27;99879.16;5052709;28;20033;-64
2021/04/07 00:29:32;;;;;;;8.30;4.63;;;;;;;3.70;65.82;99873.22;5069008;28;20497;-63
2021/04/07 00:32:06;;;;;;;6.93;4.25;;;;;;;3.71;65.89;99876.66;5053020;28;20037;-63
2021/04/07 00:34:46;;;;;;;7.53;4.28;;;;;;;3.69;65.77;99875.72;5052474;28;20480;-63
2021/04/07 00:37:20;;;;;;;7.63;4.85;;;;;;;3.69;66.12;99881.72;5069209;28;20041;-63
2021/04/07 00:39:57;;;;;;;7.70;4.85;;;;;;;3.69;65.92;99878.28;5052224;28;20069;-63
2021/04/07 00:42:31;;;;;;;6.93;4.63;;;;;;;3.69;66.44;99871.47;5052222;28;20033;-63
2021/04/07 00:45:08;;;;;;;8.45;5.18;;;;;;;3.70;66.03;99880.03;5053507;28;20036;-63
2021/04/07 00:47:42;;;;;;;6.53;3.95;;;;;;;3.70;65.99;99883.50;5052056;28;20041;-63
2021/04/07 00:50:13;;;;;;;;;;;;;;;3.70;66.01;99886.06;5052599;28;20041;-63
2021/04/07 00:52:49;;;;;;;5.38;3.80;;;;;;;3.70;65.97;99886.06;5051655;28;19912;-63
2021/04/07 00:55:26;;;;;;;8.18;4.28;;;;;;;3.69;66.14;99888.53;5053173;28;20067;-63
2021/04/07 00:58:01;;;;;;;5.47;4.72;;;;;;;3.69;65.82;99889.44;5053443;28;20065;-63
2021/04/07 01:00:31;;;;;;;5.05;4.47;;;;;;;3.69;65.92;99878.28;5068739;28;20087;-63
2021/04/07 01:03:11;;;;;;;8.18;4.43;;;;;;;3.67;65.83;99883.34;5068283;28;20056;-63
2021/04/07 01:05:46;;;;;;;7.65;3.90;;;;;;;3.69;66.36;99885.97;5051592;28;20037;-63
2021/04/07 01:08:20;;;;;;;5.82;4.07;;;;;;;3.68;66.03;99884.22;5035789;28;20132;-63
2021/04/07 01:10:54;;;;;;;7.80;3.90;;;;;;;3.68;66.27;99887.66;5051976;28;20411;-63
2021/04/07 01:13:27;;;;;;;6.97;4.53;;;;;;;3.67;66.07;99898.72;5050850;28;20059;-63
2021/04/07 01:16:01;;;;;;;9.43;4.22;;;;;;;3.67;66.57;99909.00;5051763;28;20381;-63
2021/04/07 01:18:35;;;;;;;6.57;4.53;;;;;;;3.66;65.98;99894.41;5047393;28;20152;-63
2021/04/07 01:21:09;;;;;;;5.80;3.80;;;;;;;3.66;65.68;99895.28;5051870;28;20041;-63
2021/04/07 01:23:44;;;;;;;11.75;3.92;;;;;;;3.66;66.07;99899.53;5052945;28;20481;-63
2021/04/07 01:26:20;;;;;;;6.50;3.78;;;;;;;3.64;65.87;99899.50;5068558;28;20045;-63
2021/04/07 01:29:00;;;;;;;8.68;4.22;;;;;;;3.62;66.36;99911.38;5053154;28;20033;-63
2021/04/07 01:31:50;;;;;;;6.75;3.80;;;;;;;3.60;66.07;99910.41;5052112;28;20120;-63
2021/04/07 01:34:27;;;;;;;10.38;3.70;;;;;;;3.55;65.83;99906.78;5051736;28;20392;-63
2021/04/07 01:37:02;;;;;;;7.50;3.95;;;;;;;3.55;66.11;99904.22;5052556;28;20086;-63
2021/04/07 01:39:36;;;;;;;8.02;4.70;;;;;;;3.53;66.53;99900.72;5068430;28;20484;-63
2021/04/07 01:42:10;;;;;;;9.25;4.35;;;;;;;3.53;65.73;99900.72;5052028;28;20041;-63
2021/04/07 01:44:45;;;;;;;8.50;3.70;;;;;;;3.52;65.92;99905.78;5056497;28;20492;-63
2021/04/07 01:47:19;;;;;;;6.10;3.33;;;;;;;3.49;65.93;99907.41;5056415;28;20123;-63
2021/04/07 01:49:59;;;;;;;12.43;3.67;;;;;;;3.48;66.07;99907.34;5056222;28;20044;-63
2021/04/07 01:52:30;;;;;;;9.75;3.33;;;;;;;3.46;66.04;99906.41;5056260;28;20037;-64
2021/04/07 01:55:05;;;;;;;4.15;2.85;;;;;;;3.47;65.83;99897.91;5055006;28;20499;-63
2021/04/07 01:57:41;;;;;;;6.00;3.17;;;;;;;3.48;66.19;99902.22;5071783;28;20049;-63
2021/04/07 02:00:14;;;;;;;4.32;3.10;;;;;;;3.46;65.88;99901.28;5054438;28;20048;-63
2021/04/07 02:02:48;;;;;;;7.82;3.05;;;;;;;3.47;65.89;99891.09;5054700;28;20053;-63
2021/04/07 02:05:22;;;;;;;5.18;3.17;;;;;;;3.48;65.81;99894.53;5071828;28;20060;-63
2021/04/07 02:07:57;;;;;;;6.88;2.92;;;;;;;3.51;66.19;99894.63;5054991;28;20041;-63
2021/04/07 02:10:29;;;;;;;6.47;3.22;;;;;;;3.52;66.03;99896.41;5071293;28;20044;-63
2021/04/07 02:13:12;;;;;;;5.50;3.00;;;;;;;3.53;66.10;99889.59;5055262;28;20044;-63
2021/04/07 02:15:49;;;;;;;7.82;3.90;;;;;;;3.53;66.47;99897.28;5071560;28;20167;-64
2021/04/07 02:18:22;;;;;;;6.57;3.58;;;;;;;3.53;66.22;99905.84;5055867;28;20032;-63
2021/04/07 02:20:59;;;;;;;5.15;2.78;;;;;;;3.52;66.13;99901.50;5054383;28;20370;-63
2021/04/07 02:23:33;;;;;;;7.97;3.45;;;;;;;3.53;66.00;99899.84;5055993;28;20045;-63
2021/04/07 02:26:07;;;;;;;6.32;3.08;;;;;;;3.53;65.86;99897.28;5054645;28;20025;-63
2021/04/07 02:28:40;;;;;;;;;;;;;;;3.52;66.31;99898.09;5056186;28;20167;-63
2021/04/07 02:31:15;;;;;;;6.38;2.85;;;;;;;3.52;66.27;99893.81;5037729;28;20375;-63
2021/04/07 02:33:52;;;;;;;5.53;3.65;;;;;;;3.51;65.90;99897.19;5054684;28;20036;-63
2021/04/07 02:36:23;;;;;;;7.60;3.22;;;;;;;3.50;66.57;99904.03;5055689;28;20048;-63
2021/04/07 02:39:02;;;;;;;6.45;3.28;;;;;;;3.49;66.07;99898.84;5054342;28;20041;-63
2021/04/07 02:41:30;;;;;;;5.93;3.50;;;;;;;3.47;65.98;99903.91;5055223;28;20135;-63
2021/04/07 02:44:10;;;;;;;5.97;3.00;;;;;;;3.46;65.98;99897.00;5054450;28;20033;-63
2021/04/07 02:46:44;;;;;;;4.68;2.95;;;;;;;3.45;65.89;99910.63;5071274;28;20045;-63
2021/04/07 02:49:18;;;;;;;7.18;2.83;;;;;;;3.46;66.19;99906.41;5054243;28;20560;-63
2021/04/07 02:51:50;;;;;;;;;;;;;;;3.44;65.64;99918.28;5055738;28;20036;-63
2021/04/07 02:54:27;;;;;;;9.07;3.33;;;;;;;3.44;65.63;99921.69;5053433;28;19971;-63
2021/04/07 02:57:00;;;;;;;10.27;3.30;;;;;;;3.40;65.91;99924.06;5055110;28;20381;-63
2021/04/07 02:59:31;;;;;;;10.65;2.78;;;;;;;3.38;66.16;99921.44;5070155;28;20381;-63
2021/04/07 03:02:07;;;;;;;10.90;3.15;;;;;;;3.38;65.94;99930.81;5055276;28;20041;-63
2021/04/07 03:04:41;;;;;;;8.70;3.10;;;;;;;3.35;66.07;99929.00;5053590;28;20057;-63
2021/04/07 03:07:18;;;;;;;7.85;2.90;;;;;;;3.32;66.25;99936.53;5054650;28;20427;-63
2021/04/07 03:09:55;;;;;;;6.63;2.75;;;;;;;3.34;66.32;99929.81;5053841;28;20032;-63
2021/04/07 03:12:28;;;;;;;9.50;3.28;;;;;;;3.32;66.21;99937.44;5054855;28;20532;-64
2021/04/07 03:15:02;;;;;;;9.60;3.53;;;;;;;3.30;65.87;99939.06;5053277;28;20029;-64
2021/04/07 03:17:38;;;;;;;4.55;3.03;;;;;;;3.27;66.33;99936.34;5053205;28;20544;-63
2021/04/07 03:20:15;;;;;;;5.60;2.88;;;;;;;3.25;66.19;99931.97;5070060;28;20123;-63
2021/04/07 03:22:51;;;;;;;5.57;3.08;;;;;;;3.26;66.13;99937.16;5053686;28;20047;-63
2021/04/07 03:25:25;;;;;;;9.25;3.70;;;;;;;3.27;66.01;99949.16;5054616;28;20033;-63
2021/04/07 03:28:02;;;;;;;4.65;2.28;;;;;;;3.27;66.06;99930.38;5053502;28;20415;-63
2021/04/07 03:30:51;;;;;;;4.85;2.72;;;;;;;3.26;65.96;99926.91;5070368;28;20056;-63
2021/04/07 03:33:28;;;;;;;8.65;3.13;;;;;;;3.23;66.35;99920.78;5053348;28;20121;-63
2021/04/07 03:35:57;;;;;;;5.57;2.45;;;;;;;3.24;65.75;99933.66;5052724;28;20475;-63
2021/04/07 03:38:29;;;;;;;8.57;2.47;;;;;;;3.23;65.68;99924.22;5053402;28;20041;-63
2021/04/07 03:41:03;;;;;;;5.63;3.22;;;;;;;3.24;65.99;99936.22;5054646;28;20142;-63
2021/04/07 03:43:37;;;;;;;;;;;;;;;3.22;66.16;99930.13;5053657;28;20025;-63
2021/04/07 03:46:11;;;;;;;9.88;3.13;;;;;;;3.23;65.89;99931.91;5036486;28;20003;-63
2021/04/07 03:48:42;;;;;;;7.88;3.30;;;;;;;3.20;66.54;99927.53;5069225;28;20438;-63
2021/04/07 03:51:14;;;;;;;5.97;3.03;;;;;;;3.19;66.10;99930.88;5069363;28;20122;-63
2021/04/07 03:53:53;;;;;;;6.88;3.50;;;;;;;3.20;65.92;99929.19;5052997;28;20043;-63
2021/04/07 03:56:24;;;;;;;5.68;2.88;;;;;;;3.18;66.24;99923.16;5053907;28;20033;-64
2021/04/07 03:58:58;;;;;;;8.20;3.30;;;;;;;3.19;66.26;99930.03;5053928;28;20488;-63
2021/04/07 04:01:32;;;;;;;4.25;3.05;;;;;;;3.20;65.82;99924.06;5052161;28;20549;-63
2021/04/07 04:04:08;;;;;;;8.75;2.85;;;;;;;3.22;66.06;99930.13;5048312;28;20061;-63
2021/04/07 04:06:45;;;;;;;5.70;2.95;;;;;;;3.21;66.00;99923.25;5051747;28;20048;-63
2021/04/07 04:09:19;;;;;;;6.57;3.20;;;;;;;3.22;66.32;99921.59;5052724;28;20123;-63
2021/04/07 04:11:47;;;;;;;6.28;3.28;;;;;;;3.23;66.31;99923.34;5069066;28;20362;-63
2021/04/07 04:14:24;;;;;;;3.38;2.60;;;;;;;3.23;66.19;99923.34;5053800;28;20580;-63
2021/04/07 04:16:57;;;;;;;4.47;2.67;;;;;;;3.22;66.20;99929.28;5053830;28;20044;-64
2021/04/07 04:19:28;;;;;;;8.02;3.00;;;;;;;3.23;66.69;99921.66;5053666;28;20033;-63
2021/04/07 04:22:01;;;;;;;5.38;3.00;;;;;;;3.22;65.89;99917.34;5069412;28;20062;-64
2021/04/07 04:24:31;;;;;;;4.35;3.25;;;;;;;3.23;66.24;99936.16;5053737;28;20033;-63
2021/04/07 04:27:06;;;;;;;4.72;3.17;;;;;;;3.22;66.26;99924.16;5051950;28;20447;-63
2021/04/07 04:29:39;;;;;;;7.28;2.60;;;;;;;3.20;66.32;99929.19;5052423;28;20041;-63
2021/04/07 04:32:14;;;;;;;8.95;3.58;;;;;;;3.19;66.20;99936.00;5052176;28;20050;-63
2021/04/07 04:34:47;;;;;;;;;;;;;;;3.16;66.08;99923.06;5069284;28;20041;-63
2021/04/07 04:37:21;;;;;;;8.25;2.60;;;;;;;3.15;65.79;99926.44;5052838;28;20003;-63
2021/04/07 04:39:52;;;;;;;5.00;3.25;;;;;;;3.14;66.20;99927.25;5069135;28;20044;-63
2021/04/07 04:42:29;;;;;;;5.13;2.65;;;;;;;3.15;65.81;99928.13;5052212;28;20048;-63
2021/04/07 04:44:59;;;;;;;6.55;2.90;;;;;;;3.11;66.01;99926.25;5053284;28;20072;-63
2021/04/07 04:47:30;;;;;;;7.65;2.83;;;;;;;3.12;66.39;99928.00;5068851;28;20484;-63
2021/04/07 04:50:03;;;;;;;5.03;2.42;;;;;;;3.10;66.07;99933.06;5052415;28;20171;-63
2021/04/07 04:52:34;;;;;;;5.63;2.40;;;;;;;3.09;66.20;99921.06;5068991;28;20037;-63
2021/04/07 04:55:09;;;;;;;6.32;2.30;;;;;;;3.07;66.00;99924.34;5052255;28;20033;-63
2021/04/07 04:57:43;;;;;;;7.25;2.25;;;;;;;3.01;66.15;99933.53;5052693;28;20431;-63
2021/04/07 05:00:17;;;;;;;9.95;2.78;;;;;;;3.00;66.22;99939.44;5069216;28;20048;-63
2021/04/07 05:02:51;;;;;;;;;;;;;;;2.99;66.05;99945.38;5053628;28;20048;-63
2021/04/07 05:05:22;;;;;;;7.93;2.92;;;;;;;3.00;66.26;99948.81;5051864;28;19917;-63
2021/04/07 05:07:56;;;;;;;;;;;;;;;3.00;65.84;99938.56;5052170;28;20106;-63
2021/04/07 05:10:27;;;;;;;7.18;2.85;;;;;;;2.98;66.17;99952.97;5035233;28;20368;-63
2021/04/07 05:12:53;;;;;;;9.48;3.05;;;;;;;2.99;66.30;99942.81;5031598;28;20038;-63
2021/04/07 05:15:21;;;;;;;6.53;2.70;;;;;;;3.03;66.03;99952.41;5032103;28;20045;-63
2021/04/07 05:17:49;;;;;;;3.45;2.40;;;;;;;3.00;66.16;99953.91;5035567;28;20037;-63
2021/04/07 05:20:15;;;;;;;4.68;3.00;;;;;;;2.98;66.29;99956.44;5019064;28;20064;-63
2021/04/07 05:22:40;;;;;;;8.32;2.90;;;;;;;2.99;66.34;99953.06;5035027;28;20030;-63
2021/04/07 05:25:14;;;;;;;5.68;3.20;;;;;;;3.01;66.25;99953.13;5036526;28;20089;-63
2021/04/07 05:27:40;;;;;;;6.95;2.75;;;;;;;3.00;65.81;99949.69;5037412;28;20033;-63
2021/04/07 05:30:07;;;;;;;7.00;2.75;;;;;;;2.99;66.00;99957.28;5036686;28;20056;-63
2021/04/07 05:32:32;;;;;;;7.55;2.80;;;;;;;2.98;65.93;99956.44;5019262;28;20040;-63
2021/04/07 05:34:58;;;;;;;6.38;2.97;;;;;;;2.98;66.37;99950.41;5036189;28;20037;-63
2021/04/07 05:37:23;;;;;;;11.27;2.75;;;;;;;2.98;66.04;99956.44;5035989;28;20029;-63
2021/04/07 05:39:49;;;;;;;10.48;3.13;;;;;;;2.96;66.35;99972.53;5018714;28;20179;-63
2021/04/07 05:42:14;;;;;;;12.32;4.22;;;;;;;2.94;66.38;99975.00;5036721;28;20102;-63
2021/04/07 05:44:43;;;;;;;7.10;2.90;;;;;;;2.92;65.70;99975.75;5035078;28;20409;-63
2021/04/07 05:47:13;;;;;;;10.75;2.88;;;;;;;2.94;66.14;99972.44;5034818;28;20114;-63
2021/04/07 05:49:44;;;;;;;8.50;3.63;;;;;;;2.94;66.08;99967.31;5035003;28;20114;-63
2021/04/07 05:52:13;;;;;;;6.75;3.10;;;;;;;2.94;66.41;99977.56;5013863;28;20474;-63
2021/04/07 05:54:47;;;;;;;8.02;2.80;;;;;;;2.95;65.66;100002.38;5035341;28;20116;-63
2021/04/07 05:57:21;;;;;;;7.03;2.65;;;;;;;2.92;65.96;99994.53;5034957;28;20455;-63
2021/04/07 05:59:52;;;;;;;6.90;2.88;;;;;;;2.93;66.15;99991.19;5036039;28;20050;-63
2021/04/07 06:02:26;;;;;;;;;;;;;;;2.90;65.90;99983.34;5019049;28;20061;-63
2021/04/07 06:05:06;;;;;;;12.25;2.90;;;;;;;2.93;66.08;100010.78;5036164;28;20399;-63
2021/04/07 06:07:43;;;;;;;7.28;2.75;;;;;;;2.92;65.89;100001.34;5034958;28;20029;-63
2021/04/07 06:10:27;;;;;;;10.82;3.75;;;;;;;2.91;66.38;99999.59;5034836;28;20051;-63
2021/04/07 06:13:05;;;;;;;11.27;2.70;;;;;;;2.91;66.43;99997.91;5034736;28;20042;-63
2021/04/07 06:15:42;;;;;;;6.97;3.17;;;;;;;2.89;65.99;100000.41;5036460;28;20057;-63
2021/04/07 06:18:14;;;;;;;8.57;2.70;;;;;;;2.91;66.14;100004.72;5036211;28;20033;-63
2021/04/07 06:20:52;;;;;;;9.13;2.88;;;;;;;2.89;65.96;99999.50;5034857;28;20038;-63
2021/04/07 06:23:32;;;;;;;8.90;2.60;;;;;;;2.89;66.12;99994.38;5034059;28;20404;-63
2021/04/07 06:26:17;;;;;;;8.20;3.65;;;;;;;2.89;66.10;100002.06;5034942;28;20079;-63
2021/04/07 06:28:54;;;;;;;7.07;2.88;;;;;;;2.89;66.13;100012.31;5017444;28;20033;-63
2021/04/07 06:31:31;;;;;;;8.00;2.70;;;;;;;2.89;66.30;100027.66;5034446;28;20033;-63
2021/04/07 06:34:09;;;;;;;3.75;3.15;;;;;;;2.88;66.03;100020.84;5033926;28;20042;-63
2021/04/07 06:36:49;;;;;;;9.77;2.88;;;;;;;2.86;65.90;100014.75;5018340;28;20060;-64
2021/04/07 06:39:29;;;;;;;10.90;3.90;;;;;;;2.86;66.28;100002.81;5035569;28;20090;-63
2021/04/07 06:42:05;;;;;;;10.40;3.10;;;;;;;2.87;66.00;99996.03;5035258;28;20114;-63
2021/04/07 06:44:39;;;;;;;7.93;3.65;;;;;;;2.85;66.26;99985.69;5035393;28;20116;-63
2021/04/07 06:47:17;;;;;;;16.65;3.22;;;;;;;2.85;66.27;99987.41;5017219;28;20041;-63
2021/04/07 06:49:55;;;;;;;11.43;3.92;;;;;;;2.85;65.99;100000.19;5033789;28;20046;-63
2021/04/07 06:52:37;;;;;;;9.50;2.97;;;;;;;2.82;66.04;99995.78;5035834;28;20029;-63
2021/04/07 06:55:17;;;;;;;10.00;3.08;;;;;;;2.82;66.11;100010.28;5033980;28;20045;-63
2021/04/07 06:57:56;;;;;;;6.47;3.30;;;;;;;2.82;66.06;99989.81;5035524;28;20041;-63
2021/04/07 07:00:34;;;;;;;8.93;3.30;;;;;;;2.82;66.34;99994.94;5033747;28;20030;-63
2021/04/07 07:03:10;;;;;;;7.85;3.88;;;;;;;2.81;66.10;99998.28;5035370;28;20136;-63
2021/04/07 07:05:54;;;;;;;6.97;3.08;;;;;;;2.81;65.95;99993.19;5034191;28;20099;-64
2021/04/07 07:08:29;;;;;;;12.20;3.72;;;;;;;2.80;66.23;100017.00;5017484;28;20041;-63
2021/04/07 07:11:08;;;;;;;9.63;3.03;;;;;;;2.79;66.21;100005.91;5033940;28;20034;-64
2021/04/07 07:13:44;;;;;;;6.72;2.75;;;;;;;2.77;66.46;100010.09;5017912;28;20045;-63
2021/04/07 07:16:16;;;;;;;;;;;;;;;2.76;66.44;100008.31;5035501;28;20048;-63
2021/04/07 07:18:55;;;;;;;11.32;4.25;;;;;;;2.78;66.04;100008.38;5033719;28;19962;-63
2021/04/07 07:21:29;;;;;;;10.48;2.80;;;;;;;2.79;66.21;100005.03;5017018;28;20045;-63
2021/04/07 07:23:57;;;;;;;10.75;3.63;;;;;;;2.76;66.36;100005.75;5032943;28;20041;-64
2021/04/07 07:26:26;;;;;;;10.77;3.42;;;;;;;2.73;66.05;100001.34;5034624;28;20045;-63
2021/04/07 07:29:07;;;;;;;11.23;3.63;;;;;;;2.72;65.98;100003.84;5034270;28;20409;-64
2021/04/07 07:31:36;;;;;;;5.97;2.88;;;;;;;2.72;66.53;100012.44;5033397;28;20041;-63
2021/04/07 07:34:09;;;;;;;8.07;3.15;;;;;;;2.70;66.35;99993.56;5034362;28;20505;-63
2021/04/07 07:36:41;;;;;;;8.80;3.35;;;;;;;2.72;66.30;100003.84;5032761;28;20057;-63
2021/04/07 07:39:13;;;;;;;10.80;2.90;;;;;;;2.72;66.26;100002.19;5033749;28;20037;-63
2021/04/07 07:41:49;;;;;;;9.85;3.08;;;;;;;2.71;66.22;99994.44;5032966;28;20048;-64
2021/04/07 07:44:23;;;;;;;10.25;3.78;;;;;;;2.71;66.26;99986.75;5032884;28;20141;-64
2021/04/07 07:47:04;;;;;;;8.38;3.25;;;;;;;2.73;66.55;99990.25;5032751;28;20631;-63
2021/04/07 07:49:37;;;;;;;6.05;2.97;;;;;;;2.71;66.61;100010.69;5033425;28;20123;-63
2021/04/07 07:52:11;;;;;;;3.97;2.70;;;;;;;2.68;66.26;100000.28;5032815;28;20115;-63
2021/04/07 07:54:48;;;;;;;9.85;3.67;;;;;;;2.70;66.35;99998.69;5033020;28;20040;-64
2021/04/07 07:57:19;;;;;;;12.80;3.22;;;;;;;2.67;66.22;99990.84;5032426;28;20057;-63
2021/04/07 07:59:59;;;;;;;10.20;3.63;;;;;;;2.67;66.22;100013.88;5034517;28;20091;-64
2021/04/07 08:02:35;;;;;;;11.52;4.07;;;;;;;2.65;66.14;99999.28;5016433;28;20060;-64
2021/04/07 08:05:16;;;;;;;9.02;3.33;;;;;;;2.64;66.06;100008.63;5034082;28;20069;-64
2021/04/07 08:07:47;;;;;;;7.53;2.95;;;;;;;2.63;66.33;100008.56;5016242;28;20044;-63
2021/04/07 08:10:18;;;;;;;8.40;3.00;;;;;;;2.60;66.54;100009.28;5016690;28;20041;-64
2021/04/07 08:12:52;;;;;;;9.48;3.20;;;;;;;2.61;66.18;100000.78;5016826;28;20087;-64
2021/04/07 08:15:23;;;;;;;8.75;2.88;;;;;;;2.63;66.26;100021.34;5016502;28;20033;-64
2021/04/07 08:18:00;;;;;;;6.20;3.10;;;;;;;2.63;66.31;100026.47;5032726;28;20040;-64
2021/04/07 08:20:32;;;;;;;6.40;3.20;;;;;;;2.65;66.24;100032.53;5032454;28;20047;-63
2021/04/07 08:23:06;;;;;;;7.45;3.00;;;;;;;2.62;66.41;100022.16;5032966;28;20116;-64
2021/04/07 08:25:39;;;;;;;6.75;3.25;;;;;;;2.60;66.27;100029.75;5033550;28;20116;-64
2021/04/07 08:28:13;;;;;;;8.20;2.88;;;;;;;2.59;66.61;100027.97;5033791;28;20528;-64
2021/04/07 08:30:50;;;;;;;12.93;3.35;;;;;;;2.60;66.38;100034.84;5032507;28;20065;-63
2021/04/07 08:33:25;;;;;;;7.10;2.90;;;;;;;2.57;66.32;100032.16;5033364;28;20515;-64
2021/04/07 08:36:00;;;;;;;6.68;3.45;;;;;;;2.58;65.93;100049.25;5032519;28;20044;-64
2021/04/07 08:38:36;;;;;;;5.03;3.17;;;;;;;2.55;66.34;100036.34;5033201;28;20124;-64
2021/04/07 08:41:23;;;;;;;8.30;2.92;;;;;;;2.51;66.43;100040.41;5033571;28;20039;-64
2021/04/07 08:43:52;;;;;;;7.88;2.97;;;;;;;2.51;66.61;100049.78;5033777;28;20037;-64
2021/04/07 08:46:31;;;;;;;12.38;3.83;;;;;;;2.52;65.98;100054.09;5015710;28;20038;-64
2021/04/07 08:49:05;;;;;;;8.77;3.33;;;;;;;2.49;66.42;100059.91;5033293;28;20037;-64
2021/04/07 08:51:39;;;;;;;7.20;3.65;;;;;;;2.44;66.08;100049.47;5032651;28;20129;-64
2021/04/07 08:54:13;;;;;;;4.60;2.88;;;;;;;2.47;66.36;100065.78;5020278;28;20038;-64
2021/04/07 08:56:52;;;;;;;8.48;2.92;;;;;;;2.49;66.48;100057.34;5019889;28;20091;-64
2021/04/07 08:59:26;;;;;;;12.50;3.10;;;;;;;2.50;66.63;100065.94;5019947;28;20068;-64
2021/04/07 09:02:16;;;;;;;8.60;3.42;;;;;;;2.50;66.50;100073.59;5019506;28;20069;-63
2021/04/07 09:05:10;;;;;;;8.30;3.40;;;;;;;2.50;66.10;100069.34;5019405;28;20033;-63
2021/04/07 09:07:43;;;;;;;16.67;3.20;;;;;;;2.46;66.35;100066.56;5035973;28;20049;-64
2021/04/07 09:10:10;;;;;;;9.13;3.00;;;;;;;2.48;66.09;100082.88;5037175;28;20033;-64
2021/04/07 09:12:45;;;;;;;8.55;3.03;;;;;;;2.44;66.21;100080.16;5019307;28;20080;-64
2021/04/07 09:15:25;;;;;;;6.93;3.13;;;;;;;2.47;66.43;100093.91;5037135;28;20046;-64
2021/04/07 09:18:06;;;;;;;8.63;3.03;;;;;;;2.45;66.58;100093.84;5036853;28;20029;-64
2021/04/07 09:20:43;;;;;;;10.48;3.58;;;;;;;2.46;66.29;100098.16;5019029;28;20039;-64
2021/04/07 09:23:31;;;;;;;9.18;3.58;;;;;;;2.48;66.08;100098.22;5018972;28;20041;-64
2021/04/07 09:26:17;;;;;;;10.95;3.60;;;;;;;2.47;66.47;100106.72;5036043;28;20033;-63
2021/04/07 09:28:48;;;;;;;8.07;3.30;;;;;;;2.53;66.48;100114.69;5035268;28;20033;-63
2021/04/07 09:31:23;;;;;;;14.75;3.65;;;;;;;2.52;66.25;100126.59;5036903;28;20043;-64
2021/04/07 09:33:56;;;;;;;9.32;3.28;;;;;;;2.51;66.23;100124.84;5036819;28;20034;-64
2021/04/07 09:36:38;;;;;;;17.00;4.53;;;;;;;2.53;66.10;100130.06;5036860;28;20056;-64
2021/04/07 09:39:24;;;;;;;3.92;3.00;;;;;;;2.55;66.48;100138.69;5036802;28;20033;-63
2021/04/07 09:41:55;;;;;;;10.98;5.07;;;;;;;2.53;66.18;100130.06;5036082;28;20045;-63
2021/04/07 09:44:23;;;;;;;7.50;3.28;;;;;;;2.54;66.17;100142.06;5035368;28;20033;-64
2021/04/07 09:46:56;;;;;;;11.00;4.25;;;;;;;2.54;66.35;100150.59;5035292;28;20033;-64
2021/04/07 09:49:33;;;;;;;8.10;3.47;;;;;;;2.54;66.50;100150.59;5035435;28;20033;-63
2021/04/07 09:52:10;;;;;;;10.43;4.40;;;;;;;2.56;66.75;100149.00;5036426;28;20049;-63
2021/04/07 09:54:44;;;;;;;7.78;3.88;;;;;;;2.58;66.73;100154.16;5018642;28;20045;-63
2021/04/07 09:57:18;;;;;;;6.45;3.70;;;;;;;2.56;66.24;100163.47;5019221;28;20128;-63
2021/04/07 09:59:52;;;;;;;7.40;3.25;;;;;;;2.58;66.52;100162.75;5036388;28;20038;-63
2021/04/07 10:02:23;;;;;;;10.90;3.47;;;;;;;2.61;66.43;100168.81;5018208;28;20064;-63
2021/04/07 10:05:00;;;;;;;12.27;4.25;;;;;;;2.58;66.57;100164.41;5034729;28;20041;-64
2021/04/07 10:07:33;;;;;;;10.98;3.63;;;;;;;2.58;66.58;100170.41;5018682;28;20049;-63
2021/04/07 10:10:07;;;;;;;5.33;3.40;;;;;;;2.59;66.71;100159.38;5035203;28;20045;-63
2021/04/07 10:12:43;;;;;;;11.63;3.30;;;;;;;2.59;66.57;100172.19;5035090;28;20083;-63
2021/04/07 10:15:17;;;;;;;5.75;3.47;;;;;;;2.65;66.79;100173.31;5034358;28;20033;-64
2021/04/07 10:17:51;;;;;;;13.70;4.10;;;;;;;2.63;66.76;100170.66;5036772;28;20033;-64
2021/04/07 10:20:29;;;;;;;11.68;3.70;;;;;;;2.62;66.57;100170.59;5034839;28;20036;-63
2021/04/07 10:23:05;;;;;;;9.95;3.83;;;;;;;2.66;66.45;100173.38;5018327;28;20099;-64
2021/04/07 10:25:30;;;;;;;13.55;4.20;;;;;;;2.68;66.66;100168.31;5035301;28;20477;-64
2021/04/07 10:28:17;;;;;;;14.18;3.53;;;;;;;2.67;66.28;100174.22;5035446;28;20087;-63
2021/04/07 10:30:45;;;;;;;14.20;3.70;;;;;;;2.65;66.65;100169.03;5035807;28;20037;-63
2021/04/07 10:33:16;;;;;;;11.48;3.75;;;;;;;2.64;66.54;100185.19;5035810;28;20029;-63
2021/04/07 10:35:44;;;;;;;11.98;4.35;;;;;;;2.66;66.33;100173.38;5034433;28;20069;-63
2021/04/07 10:38:18;;;;;;;11.75;3.75;;;;;;;2.67;66.69;100184.47;5034400;28;20038;-64
2021/04/07 10:40:58;;;;;;;14.10;4.32;;;;;;;2.66;66.39;100177.59;5034647;28;20037;-64
2021/04/07 10:43:46;;;;;;;11.75;4.03;;;;;;;2.66;66.26;100183.59;5017221;28;20033;-64
2021/04/07 10:46:28;;;;;;;11.38;3.55;;;;;;;2.66;66.59;100192.94;5034372;28;20057;-64
2021/04/07 10:48:58;;;;;;;10.95;3.92;;;;;;;2.67;66.60;100195.59;5032964;28;20040;-63
2021/04/07 10:51:31;;;;;;;11.48;3.90;;;;;;;2.68;66.79;100204.13;5017126;28;20049;-63
2021/04/07 10:53:58;;;;;;;11.65;4.75;;;;;;;2.69;66.44;100205.91;5017541;28;20535;-63
2021/04/07 10:56:27;;;;;;;13.60;4.20;;;;;;;2.67;66.83;100207.50;5034062;28;20481;-64
2021/04/07 10:58:59;;;;;;;10.95;4.28;;;;;;;2.66;66.70;100198.97;5035004;28;20080;-63
2021/04/07 11:01:29;;;;;;;16.88;4.57;;;;;;;2.65;66.64;100207.44;5034609;28;20114;-63
2021/04/07 11:03:54;;;;;;;11.38;3.53;;;;;;;2.66;66.39;100209.19;5017726;28;20060;-63
2021/04/07 11:06:23;;;;;;;20.08;5.55;;;;;;;2.71;66.66;100228.22;5033676;28;20076;-63
2021/04/07 11:08:54;;;;;;;17.50;4.32;;;;;;;2.76;66.44;100227.56;5033716;28;20124;-63
2021/04/07 11:11:25;;;;;;;11.90;3.97;;;;;;;2.76;67.11;100223.34;5033620;28;20038;-64
2021/04/07 11:13:52;;;;;;;7.78;3.45;;;;;;;2.80;66.53;100226.91;5033373;28;20045;-63
2021/04/07 11:16:18;;;;;;;12.88;4.63;;;;;;;2.78;66.93;100236.19;5034560;28;20037;-63
2021/04/07 11:18:51;;;;;;;9.43;3.72;;;;;;;2.80;66.90;100234.59;5034378;28;20029;-64
2021/04/07 11:21:18;;;;;;;9.02;3.75;;;;;;;2.80;66.84;100237.16;5033875;28;20061;-63
2021/04/07 11:23:48;;;;;;;13.55;4.85;;;;;;;2.78;66.54;100238.75;5034427;28;20071;-63
2021/04/07 11:26:14;;;;;;;10.77;4.32;;;;;;;2.80;66.68;100243.19;5014751;28;20045;-63
2021/04/07 11:28:40;;;;;;;11.40;4.35;;;;;;;2.82;67.08;100240.69;5032697;28;20382;-63
2021/04/07 11:31:32;;;;;;;8.57;4.25;;;;;;;2.82;67.08;100236.44;5033358;28;20068;-63
2021/04/07 11:34:04;;;;;;;14.27;4.30;;;;;;;2.83;66.56;100240.75;5032325;28;20088;-63
2021/04/07 11:44:29;;;;;;;11.82;4.13;;;;;;;2.87;66.77;100255.47;5033818;28;20033;-63
2021/04/07 11:46:56;;;;;;;13.95;4.28;;;;;;;2.86;66.66;100250.28;5032863;28;20160;-63
2021/04/07 11:49:21;;;;;;;18.20;5.00;;;;;;;2.87;66.67;100245.22;5016231;28;20041;-63
2021/04/07 11:51:50;;;;;;;15.10;5.13;;;;;;;2.91;66.91;100253.06;5032995;28;20037;-63
2021/04/07 11:54:15;;;;;;;7.93;3.83;;;;;;;2.91;66.94;100248.81;5016828;28;20044;-63
2021/04/07 11:56:48;;;;;;;14.32;4.25;;;;;;;2.92;66.69;100257.38;5033885;28;20033;-63
2021/04/07 11:59:21;;;;;;;17.83;4.80;;;;;;;2.93;66.85;100254.91;5033925;28;20042;-63
2021/04/07 12:01:49;;;;;;;18.83;4.33;;;;;;;2.95;66.93;100257.56;5032230;28;20045;-63
2021/04/07 12:04:15;;;;;;;10.80;4.15;;;;;;;2.95;67.15;100263.53;5016149;28;20781;-63
2021/04/07 12:06:46;;;;;;;16.48;5.82;;;;;;;2.94;66.73;100266.91;5032281;28;20033;-63
2021/04/07 12:09:12;;;;;;;16.60;4.97;;;;;;;2.95;66.63;100266.09;5016564;28;20037;-64
2021/04/07 12:11:43;;;;;;;14.05;4.95;;;;;;;2.97;66.69;100276.41;5033722;28;20152;-63
2021/04/07 12:14:22;;;;;;;13.98;4.28;;;;;;;2.97;66.99;100277.28;5016093;28;20033;-64
2021/04/07 12:16:51;;;;;;;10.85;4.45;;;;;;;2.95;66.93;100268.66;5015717;28;20409;-62